Time;durP1;ratioP1;P1;durP2;ratioP2;P2;SDS_P1;SDS_P2;PMS_P1;PMS_P2;Temp;Humidity;BMP_temperature;BMP_pressure;BME280_temperature;BME280_humidity;BME280_pressure;Samples;Min_cycle;Max_cycle;Signal;HPM_P1;HPM_P2
2022/10/08 00:08:45;;;;;;;49.40;32.80;;;;;;;11.20;81.15;98995.16;422624;1293;97866;-40
2022/10/08 00:18:54;;;;;;;49.20;32.30;;;;;;;11.32;81.34;98993.63;422527;1296;110297;-40
2022/10/08 00:29:04;;;;;;;47.50;32.50;;;;;;;11.25;81.22;98975.61;422785;1292;106797;-40
2022/10/08 00:39:15;;;;;;;47.10;30.50;;;;;;;11.17;81.53;98965.28;422510;1293;97901;-40
2022/10/08 00:59:31;;;;;;;45.70;29.00;;;;;;;11.25;82.12;98943.94;422894;1293;98057;-40
2022/10/08 01:09:42;;;;;;;43.50;29.80;;;;;;;11.26;82.10;98931.33;422579;1288;109875;-40
2022/10/08 01:20:13;;;;;;;47.10;29.80;;;;;;;11.21;82.36;98922.67;423738;1273;107940;-41
2022/10/08 01:30:21;;;;;;;42.80;28.60;;;;;;;11.11;82.51;98913.14;422880;1282;98036;-40
2022/10/08 01:40:35;;;;;;;38.20;29.10;;;;;;;11.05;82.73;98905.65;422702;1287;107001;-40
2022/10/08 01:50:45;;;;;;;42.20;30.30;;;;;;;11.00;82.77;98899.66;422710;1292;97515;-40
2022/10/08 02:00:53;;;;;;;42.80;31.80;;;;;;;10.92;82.85;98895.73;422981;1287;109856;-41
2022/10/08 02:11:00;;;;;;;41.50;29.60;;;;;;;10.85;83.04;98889.45;422948;1292;108223;-41
2022/10/08 02:31:26;;;;;;;38.30;26.50;;;;;;;10.90;83.74;98876.20;423115;1293;108044;-40
2022/10/08 02:41:40;;;;;;;40.50;28.70;;;;;;;10.96;83.66;98874.36;422994;1286;97509;-40
2022/10/08 02:51:48;;;;;;;45.30;27.20;;;;;;;10.95;83.54;98867.45;422760;1290;110797;-40
2022/10/08 03:01:59;;;;;;;36.60;25.90;;;;;;;10.92;83.76;98871.23;422839;1292;106770;-41
2022/10/08 03:12:08;;;;;;;33.70;21.50;;;;;;;10.94;83.94;98867.00;422417;1278;97174;-41
2022/10/08 03:22:15;;;;;;;32.40;22.60;;;;;;;11.01;84.17;98856.17;422614;1296;108189;-40
2022/10/08 03:32:22;;;;;;;28.30;20.70;;;;;;;11.11;84.27;98851.10;422885;1293;97867;-40
2022/10/08 03:42:29;;;;;;;28.20;20.20;;;;;;;11.25;84.52;98844.00;422561;1286;109118;-40
2022/10/08 03:52:37;;;;;;;26.90;20.80;;;;;;;11.42;84.73;98837.45;422571;1286;107244;-40
2022/10/08 04:02:44;;;;;;;28.30;21.00;;;;;;;11.54;84.83;98832.42;422693;1292;96602;-41
2022/10/08 04:12:51;;;;;;;27.80;18.90;;;;;;;11.57;84.76;98836.85;422727;1292;107486;-40
2022/10/08 04:22:58;;;;;;;27.60;19.00;;;;;;;11.52;84.65;98833.35;423031;1292;97892;-40
2022/10/08 04:33:06;;;;;;;27.20;20.00;;;;;;;11.43;84.78;98827.79;422738;1286;110908;-40
2022/10/08 04:43:13;;;;;;;22.80;18.30;;;;;;;11.43;84.95;98825.46;423201;1292;108741;-40
2022/10/08 04:53:20;;;;;;;27.40;18.10;;;;;;;11.50;85.16;98820.16;422962;1285;98549;-39
2022/10/08 05:03:27;;;;;;;24.70;16.60;;;;;;;11.58;85.05;98824.00;423069;1286;109102;-39
2022/10/08 05:13:35;;;;;;;25.10;15.80;;;;;;;11.70;85.18;98824.00;422707;1292;97959;-40
2022/10/08 05:23:42;;;;;;;19.80;15.00;;;;;;;11.84;85.24;98818.39;422584;1288;110585;-40
2022/10/08 05:33:51;;;;;;;18.30;13.80;;;;;;;12.06;85.31;98817.22;422850;1293;107421;-40
2022/10/08 05:44:00;;;;;;;16.10;12.20;;;;;;;12.32;85.30;98821.75;422923;1286;97529;-40
2022/10/08 05:54:08;;;;;;;16.70;11.60;;;;;;;12.66;85.24;98829.70;422645;1292;108624;-39
2022/10/08 06:14:23;;;;;;;12.60;11.10;;;;;;;14.01;85.43;98842.06;423138;1285;109861;-40
2022/10/08 06:24:30;;;;;;;15.90;10.90;;;;;;;14.34;84.52;98841.52;423301;1292;108157;-40
2022/10/08 06:34:37;;;;;;;11.10;9.90;;;;;;;14.45;84.00;98841.39;422908;1292;97902;-41
2022/10/08 06:44:44;;;;;;;10.70;9.20;;;;;;;14.71;83.85;98843.96;422775;1292;109783;-40
2022/10/08 06:54:52;;;;;;;13.50;10.20;;;;;;;15.00;83.53;98850.96;422894;1286;108452;-39
2022/10/08 07:04:59;;;;;;;16.40;11.60;;;;;;;15.32;83.61;98851.00;422869;1292;98020;-39
2022/10/08 07:15:08;;;;;;;18.50;9.90;;;;;;;15.74;83.07;98845.40;423030;1293;111624;-40
2022/10/08 07:25:14;;;;;;;15.20;9.70;;;;;;;16.26;82.76;98834.19;422698;1292;107029;-40
2022/10/08 07:35:21;;;;;;;12.10;10.00;;;;;;;16.88;82.33;98837.67;423264;1292;97475;-40
2022/10/08 07:45:28;;;;;;;13.40;8.90;;;;;;;17.56;81.34;98843.23;422817;1283;109744;-41
2022/10/08 07:55:35;;;;;;;12.00;9.70;;;;;;;17.31;79.94;98847.06;422606;1279;108735;-41
2022/10/08 08:05:42;;;;;;;15.80;8.90;;;;;;;17.15;79.48;98842.89;423052;1278;96698;-42
2022/10/08 08:15:55;;;;;;;10.00;8.20;;;;;;;17.37;79.41;98843.84;423209;1292;110260;-41
2022/10/08 08:26:00;;;;;;;10.70;9.60;;;;;;;17.60;78.85;98842.48;422906;1292;107701;-39
2022/10/08 08:36:08;;;;;;;12.40;10.30;;;;;;;17.77;78.69;98838.47;422910;1293;98194;-40
2022/10/08 08:46:21;;;;;;;11.90;10.50;;;;;;;18.20;78.44;98833.79;422905;1286;109884;-40
2022/10/08 08:56:28;;;;;;;14.60;9.00;;;;;;;18.77;77.54;98822.95;422916;1292;108690;-39
2022/10/08 09:06:37;;;;;;;11.20;10.00;;;;;;;18.89;76.56;98825.60;423052;1292;97536;-38
2022/10/08 09:16:45;;;;;;;11.70;10.60;;;;;;;18.95;76.15;98826.80;422986;1282;110342;-40
2022/10/08 09:47:13;;;;;;;18.40;11.30;;;;;;;19.22;74.45;98816.04;422701;1285;97611;-40
2022/10/08 09:57:22;;;;;;;11.30;9.80;;;;;;;19.43;73.99;98813.38;423065;1293;109291;-40
2022/10/08 10:07:38;;;;;;;19.00;11.30;;;;;;;19.47;73.46;98806.41;423096;1293;108769;-40
2022/10/08 10:17:48;;;;;;;16.00;11.00;;;;;;;19.64;73.17;98804.88;423155;1293;97892;-39
2022/10/08 10:27:59;;;;;;;18.40;11.50;;;;;;;19.80;72.74;98807.33;423200;1292;110052;-39
2022/10/08 10:48:08;;;;;;;16.80;12.20;;;;;;;19.36;71.75;98799.17;423370;1292;97463;-39
2022/10/08 10:58:40;;;;;;;16.60;12.60;;;;;;;19.37;71.85;98791.02;422895;1292;97377;-40
2022/10/08 11:08:51;;;;;;;29.60;20.70;;;;;;;19.31;71.60;98782.70;422329;1285;109394;-40
2022/10/08 11:19:01;;;;;;;18.10;14.50;;;;;;;19.26;71.73;98769.56;423006;1293;98480;-40
2022/10/08 11:29:08;;;;;;;23.20;14.90;;;;;;;19.16;71.70;98767.83;422906;1292;109640;-40
2022/10/08 11:39:16;;;;;;;30.10;19.70;;;;;;;19.23;71.78;98762.73;422935;1292;107547;-40
2022/10/08 11:59:59;;;;;;;19.40;14.70;;;;;;;19.32;71.04;98747.67;423155;1292;110477;-39
2022/10/08 12:10:29;;;;;;;23.50;15.00;;;;;;;19.48;71.13;98729.98;423104;1284;107480;-40
2022/10/08 12:41:04;;;;;;;27.30;15.70;;;;;;;19.76;70.55;98724.27;422711;1293;107836;-40
2022/10/08 12:51:21;;;;;;;24.00;17.00;;;;;;;19.73;70.35;98720.48;422989;1289;97896;-40
2022/10/08 13:01:29;;;;;;;17.10;14.40;;;;;;;19.44;69.83;98719.84;423178;1292;110817;-40
2022/10/08 13:11:36;;;;;;;19.20;12.60;;;;;;;19.41;70.01;98716.39;423174;1284;107057;-40
2022/10/08 13:21:56;;;;;;;20.00;14.00;;;;;;;19.30;69.54;98718.38;422814;1293;97589;-41
2022/10/08 13:32:01;;;;;;;25.20;13.80;;;;;;;19.34;69.66;98717.41;423342;1292;97908;-40
2022/10/08 13:42:14;;;;;;;17.80;13.00;;;;;;;19.32;69.51;98715.45;423136;1286;97969;-39
2022/10/08 13:52:23;;;;;;;17.10;13.40;;;;;;;19.27;69.35;98717.21;423180;1291;107554;-41
2022/10/08 14:02:31;;;;;;;23.40;14.80;;;;;;;19.05;69.40;98710.20;422789;1291;98280;-41
2022/10/08 14:12:38;;;;;;;21.70;14.50;;;;;;;18.74;69.37;98706.52;422836;1292;110825;-40
2022/10/08 14:22:45;;;;;;;18.10;12.20;;;;;;;18.82;69.37;98699.70;422799;1293;107272;-40
2022/10/08 14:32:53;;;;;;;21.70;15.90;;;;;;;18.74;69.68;98704.91;423043;1293;97866;-40
2022/10/08 14:43:00;;;;;;;23.30;15.40;;;;;;;18.39;69.81;98702.67;423005;1293;110189;-40
2022/10/08 14:53:07;;;;;;;22.10;15.80;;;;;;;18.02;70.09;98701.79;422848;1293;108342;-39
2022/10/08 15:03:14;;;;;;;27.70;16.10;;;;;;;17.79;70.47;98709.94;422783;1295;97902;-41
2022/10/08 15:13:22;;;;;;;19.10;13.40;;;;;;;17.94;70.79;98707.51;422505;1284;110683;-41
2022/10/08 15:23:29;;;;;;;21.00;15.00;;;;;;;17.89;70.87;98703.61;422706;1292;108275;-42
2022/10/08 15:43:43;;;;;;;18.90;15.30;;;;;;;17.35;71.58;98710.70;423067;1286;110699;-40
2022/10/08 15:53:51;;;;;;;25.50;18.50;;;;;;;17.22;71.97;98713.87;423013;1293;108393;-39
2022/10/08 16:03:59;;;;;;;33.20;20.90;;;;;;;17.11;72.36;98716.63;422902;1292;98712;-39
2022/10/08 16:14:08;;;;;;;36.30;22.00;;;;;;;16.94;72.67;98734.54;423236;1289;109303;-39
2022/10/08 16:24:16;;;;;;;26.80;20.50;;;;;;;16.66;73.26;98758.66;423017;1293;107770;-40
2022/10/08 16:34:25;;;;;;;25.50;20.70;;;;;;;16.41;73.91;98753.80;422759;1292;97886;-41
2022/10/08 16:44:32;;;;;;;31.40;22.30;;;;;;;16.29;74.29;98770.17;423034;1293;110651;-40
2022/10/08 16:54:39;;;;;;;33.10;21.40;;;;;;;16.06;74.60;98802.10;422966;1295;108442;-41
2022/10/08 17:04:46;;;;;;;32.10;23.70;;;;;;;15.81;75.59;98800.16;423080;1285;97005;-40
2022/10/08 17:14:54;;;;;;;96.10;45.60;;;;;;;15.83;76.17;98811.12;422701;1291;108262;-41
2022/10/08 17:25:01;;;;;;;36.50;27.50;;;;;;;15.78;76.81;98813.75;422702;1293;97509;-40
2022/10/08 17:35:06;;;;;;;44.30;29.40;;;;;;;15.76;77.14;98827.71;422764;1289;110618;-40
2022/10/08 17:45:13;;;;;;;36.70;26.70;;;;;;;15.49;77.14;98834.29;422921;1296;107809;-41
2022/10/08 17:55:19;;;;;;;42.20;26.60;;;;;;;15.32;77.69;98842.48;422813;1285;97912;-39
2022/10/08 18:05:26;;;;;;;37.50;26.70;;;;;;;15.34;78.27;98856.18;423164;1286;106848;-39
2022/10/08 18:15:36;;;;;;;37.60;26.50;;;;;;;15.36;78.54;98873.08;422790;1285;98545;-39
2022/10/08 18:25:43;;;;;;;35.40;25.60;;;;;;;15.40;78.84;98879.70;423065;1286;109840;-39
2022/10/08 18:35:50;;;;;;;32.60;25.50;;;;;;;15.42;79.07;98886.36;422468;1293;108539;-41
2022/10/08 18:46:01;;;;;;;30.70;23.90;;;;;;;15.39;79.09;98880.85;422877;1284;97502;-40
2022/10/08 18:56:11;;;;;;;35.80;24.30;;;;;;;15.21;79.09;98893.70;422882;1293;106546;-40
2022/10/08 19:06:20;;;;;;;33.70;22.90;;;;;;;15.10;79.27;98897.85;423057;1292;98001;-40
2022/10/08 19:16:28;;;;;;;34.70;22.60;;;;;;;15.01;79.50;98904.70;423003;1286;110720;-39
2022/10/08 19:26:35;;;;;;;38.10;27.10;;;;;;;14.88;79.56;98921.02;423000;1289;108842;-39
2022/10/08 19:36:43;;;;;;;37.20;27.20;;;;;;;14.69;79.67;98933.70;422834;1282;97383;-39
2022/10/08 19:46:50;;;;;;;33.80;25.00;;;;;;;14.41;79.80;98946.64;422462;1292;108264;-40
2022/10/08 19:56:56;;;;;;;28.80;20.10;;;;;;;14.20;80.05;98970.54;422934;1292;97475;-39
2022/10/08 20:07:03;;;;;;;27.80;18.20;;;;;;;13.98;80.24;98983.62;422802;1293;110419;-39
2022/10/08 20:17:10;;;;;;;24.00;16.40;;;;;;;13.84;80.36;98993.52;422889;1293;108601;-39
2022/10/08 20:27:17;;;;;;;20.70;15.50;;;;;;;13.74;80.25;98991.59;422595;1286;97468;-40
2022/10/08 20:37:22;;;;;;;19.40;14.70;;;;;;;13.69;80.38;99002.66;422924;1292;106206;-38
2022/10/08 20:47:28;;;;;;;18.40;12.90;;;;;;;13.62;80.27;99015.14;422883;1285;97886;-39
2022/10/08 20:57:34;;;;;;;23.50;13.70;;;;;;;13.47;80.29;99027.80;422731;1292;109440;-38
2022/10/08 21:07:40;;;;;;;23.60;13.10;;;;;;;13.33;80.27;99044.77;422984;1292;98186;-39
2022/10/08 21:17:47;;;;;;;19.60;10.60;;;;;;;13.12;80.14;99055.37;422807;1292;97819;-40
2022/10/08 21:27:54;;;;;;;17.50;10.20;;;;;;;12.97;80.07;99061.60;422741;1289;110410;-40
2022/10/08 21:38:01;;;;;;;15.40;8.20;;;;;;;12.88;80.15;99072.19;422864;1286;109627;-41
2022/10/08 21:48:08;;;;;;;20.90;11.10;;;;;;;12.80;80.15;99085.50;422596;1292;97890;-41
2022/10/08 21:58:15;;;;;;;14.10;6.90;;;;;;;12.59;80.18;99101.16;423012;1292;107670;-40
2022/10/08 22:18:31;;;;;;;7.70;4.30;;;;;;;12.24;80.03;99126.11;423105;1286;97521;-39
2022/10/08 22:28:39;;;;;;;10.20;4.50;;;;;;;12.10;79.76;99136.12;422701;1285;107582;-39
2022/10/08 22:38:47;;;;;;;6.20;4.10;;;;;;;12.01;79.71;99135.39;422586;1288;383187;-39
2022/10/08 22:59:04;;;;;;;7.90;3.90;;;;;;;11.60;79.92;99158.34;423014;1292;107067;-39
2022/10/08 23:09:13;;;;;;;7.30;3.40;;;;;;;11.40;79.70;99149.74;423072;1292;97506;-40
2022/10/08 23:19:20;;;;;;;16.30;6.10;;;;;;;11.23;79.64;99148.97;422854;1292;108767;-40
2022/10/08 23:29:28;;;;;;;10.00;6.20;;;;;;;10.99;79.69;99163.55;422508;1292;108199;-40
2022/10/08 23:39:35;;;;;;;20.80;7.50;;;;;;;10.85;79.73;99175.74;422925;1292;97906;-40
2022/10/08 23:49:42;;;;;;;20.70;7.00;;;;;;;10.58;79.83;99176.63;423030;1287;107559;-45
2022/10/08 23:59:48;;;;;;;11.50;4.10;;;;;;;10.34;80.02;99185.34;422702;1278;97480;-40
